createdAt,value
2019-03-05T00:01:50.615Z,6.70
2019-03-05T00:04:21.126Z,6.70
2019-03-05T00:06:51.645Z,6.70
2019-03-05T00:09:22.830Z,6.80
2019-03-05T00:11:53.451Z,6.80
2019-03-05T00:14:24.448Z,6.80
2019-03-05T00:16:55.091Z,6.80
2019-03-05T00:19:25.683Z,6.80
2019-03-05T00:21:56.186Z,6.70
2019-03-05T00:25:04.478Z,6.70
2019-03-05T00:27:58.944Z,6.70
2019-03-05T00:31:02.548Z,6.70
2019-03-05T00:34:13.567Z,6.70
2019-03-05T00:37:03.288Z,6.70
2019-03-05T00:40:26.186Z,6.70
2019-03-05T00:43:28.692Z,6.70
2019-03-05T00:46:31.857Z,6.70
2019-03-05T00:49:23.696Z,6.70
2019-03-05T00:52:26.036Z,6.60
2019-03-05T00:55:40.762Z,6.60
2019-03-05T00:58:48.861Z,6.60
2019-03-05T01:01:54.994Z,6.60
2019-03-05T01:05:00.662Z,6.50
2019-03-05T01:07:31.612Z,6.50
2019-03-05T01:10:02.265Z,6.50
2019-03-05T01:12:33.195Z,6.50
2019-03-05T01:15:04.538Z,6.50
2019-03-05T01:17:35.055Z,6.40
2019-03-05T01:20:08.065Z,6.30
2019-03-05T01:22:38.859Z,6.30
2019-03-05T01:25:26.416Z,6.20
2019-03-05T01:27:56.962Z,6.20
2019-03-05T01:31:00.838Z,6.20
2019-03-05T01:33:36.292Z,6.10
2019-03-05T01:36:10.968Z,6.20
2019-03-05T01:39:00.995Z,6.20
2019-03-05T01:41:32.403Z,6.30
2019-03-05T01:44:02.983Z,6.30
2019-03-05T01:46:33.504Z,6.40
2019-03-05T01:49:04.141Z,6.40
2019-03-05T01:51:34.750Z,6.40
2019-03-05T01:54:05.395Z,6.40
2019-03-05T01:56:35.939Z,6.50
2019-03-05T01:59:06.496Z,6.50
2019-03-05T02:01:37.135Z,6.60
2019-03-05T02:04:08.868Z,6.70
2019-03-05T02:06:40.575Z,6.70
2019-03-05T02:09:12.488Z,6.70
2019-03-05T02:11:43.319Z,6.80
2019-03-05T02:14:16.551Z,6.80
2019-03-05T02:16:47.199Z,6.80
2019-03-05T02:19:39.806Z,6.90
2019-03-05T02:22:13.962Z,6.80
2019-03-05T02:25:23.344Z,6.80
2019-03-05T02:28:47.486Z,6.80
2019-03-05T02:32:11.761Z,6.80
2019-03-05T02:35:17.151Z,6.70
2019-03-05T02:38:26.906Z,6.70
2019-03-05T02:41:25.766Z,6.70
2019-03-05T02:44:37.300Z,6.60
2019-03-05T02:47:43.768Z,6.60
2019-03-05T02:50:54.436Z,6.60
2019-03-05T02:53:59.227Z,6.60
2019-03-05T02:56:38.068Z,6.60
2019-03-05T02:59:07.059Z,6.60
2019-03-05T03:02:02.353Z,6.60
2019-03-05T03:04:37.509Z,6.70
2019-03-05T03:07:08.461Z,6.70
2019-03-05T03:10:30.302Z,6.60
2019-03-05T03:13:01.483Z,6.60
2019-03-05T03:15:32.133Z,6.50
2019-03-05T03:18:02.655Z,6.50
2019-03-05T03:20:33.669Z,6.50
2019-03-05T03:23:04.496Z,6.50
2019-03-05T03:25:35.332Z,6.50
2019-03-05T03:28:06.521Z,6.50
2019-03-05T03:30:37.217Z,6.50
2019-03-05T03:33:07.869Z,6.50
2019-03-05T03:35:38.500Z,6.50
2019-03-05T03:38:09.094Z,6.50
2019-03-05T03:40:39.620Z,6.60
2019-03-05T03:43:10.388Z,6.60
2019-03-05T03:45:41.687Z,6.60
2019-03-05T03:48:12.515Z,6.70
2019-03-05T03:50:44.835Z,6.70
2019-03-05T03:53:15.412Z,6.70
2019-03-05T03:55:45.996Z,6.70
2019-03-05T03:58:16.843Z,6.80
2019-03-05T04:00:48.487Z,6.80
2019-03-05T04:03:19.955Z,6.70
2019-03-05T04:05:50.486Z,6.60
2019-03-05T04:08:21.138Z,6.30
2019-03-05T04:10:52.584Z,6.00
2019-03-05T04:13:23.120Z,6.00
2019-03-05T04:15:53.647Z,5.90
2019-03-05T04:18:24.492Z,5.90
2019-03-05T04:20:55.035Z,5.90
2019-03-05T04:23:25.683Z,5.80
2019-03-05T04:25:56.697Z,5.80
2019-03-05T04:28:27.239Z,5.80
2019-03-05T04:30:57.780Z,5.80
2019-03-05T04:33:28.376Z,5.90
2019-03-05T04:35:59.276Z,5.90
2019-03-05T04:38:30.727Z,5.80
2019-03-05T04:41:01.255Z,5.80
2019-03-05T04:43:31.810Z,5.70
2019-03-05T04:46:20.187Z,5.70
2019-03-05T04:49:09.850Z,5.70
2019-03-05T04:51:51.090Z,5.60
2019-03-05T04:54:23.106Z,5.50
2019-03-05T04:56:55.300Z,5.50
2019-03-05T04:59:25.834Z,5.50
2019-03-05T05:01:56.383Z,5.60
2019-03-05T05:04:26.905Z,5.60
2019-03-05T05:06:58.247Z,5.80
2019-03-05T05:09:31.716Z,5.80
2019-03-05T05:12:02.236Z,5.80
2019-03-05T05:14:32.779Z,5.90
2019-03-05T05:17:03.335Z,6.00
2019-03-05T05:19:34.233Z,6.00
2019-03-05T05:22:04.767Z,6.00
2019-03-05T05:24:36.228Z,6.10
2019-03-05T05:27:06.949Z,6.10
2019-03-05T05:29:41.166Z,6.10
2019-03-05T05:32:13.301Z,6.10
2019-03-05T05:34:44.185Z,6.20
2019-03-05T05:37:14.894Z,6.20
2019-03-05T05:40:22.561Z,6.20
2019-03-05T05:42:53.111Z,6.30
2019-03-05T05:45:25.338Z,6.40
2019-03-05T05:47:56.249Z,6.50
2019-03-05T05:50:26.809Z,6.50
2019-03-05T05:52:58.611Z,6.70
2019-03-05T05:55:29.254Z,6.80
2019-03-05T05:57:59.812Z,6.80
2019-03-05T06:00:36.063Z,6.80
2019-03-05T06:03:06.642Z,6.70
2019-03-05T06:05:37.128Z,6.70
2019-03-05T06:08:07.776Z,6.70
2019-03-05T06:10:38.771Z,6.70
2019-03-05T06:13:09.679Z,6.70
2019-03-05T06:15:40.245Z,6.70
2019-03-05T06:18:10.771Z,6.60
2019-03-05T06:20:42.651Z,6.60
2019-03-05T06:23:13.546Z,6.60
2019-03-05T06:25:44.065Z,6.50
2019-03-05T06:28:14.547Z,6.30
2019-03-05T06:30:45.136Z,6.30
2019-03-05T06:33:18.580Z,6.20
2019-03-05T06:35:49.131Z,5.80
2019-03-05T06:38:19.630Z,4.90
2019-03-05T06:40:50.186Z,4.50
2019-03-05T06:43:20.692Z,4.20
2019-03-05T06:45:53.518Z,4.20
2019-03-05T06:48:24.003Z,4.10
2019-03-05T06:50:54.761Z,4.10
2019-03-05T06:53:25.688Z,4.00
2019-03-05T06:55:56.243Z,3.90
2019-03-05T06:58:26.883Z,4.00
2019-03-05T07:00:57.417Z,4.00
2019-03-05T07:03:28.064Z,4.00
2019-03-05T07:06:50.767Z,3.80
2019-03-05T07:10:13.444Z,3.70
2019-03-05T07:13:30.404Z,3.50
2019-03-05T07:16:11.126Z,3.50
2019-03-05T07:18:54.419Z,3.50
2019-03-05T07:21:54.271Z,3.60
2019-03-05T07:24:48.994Z,3.70
2019-03-05T07:27:30.972Z,3.60
2019-03-05T07:30:23.347Z,3.60
2019-03-05T07:32:54.640Z,3.60
2019-03-05T07:35:27.515Z,3.50
2019-03-05T07:37:58.090Z,3.40
2019-03-05T07:40:29.103Z,3.30
2019-03-05T07:42:59.640Z,3.40
2019-03-05T07:45:31.075Z,3.30
2019-03-05T07:48:02.225Z,3.40
2019-03-05T07:50:32.731Z,3.50
2019-03-05T07:53:03.292Z,3.60
2019-03-05T07:55:33.836Z,3.80
2019-03-05T07:58:04.390Z,3.90
2019-03-05T08:00:35.312Z,4.00
2019-03-05T08:03:05.848Z,4.20
2019-03-05T08:05:37.133Z,4.30
2019-03-05T08:08:43.384Z,4.40
2019-03-05T08:11:14.015Z,4.40
2019-03-05T08:14:13.112Z,4.50
2019-03-05T08:16:43.648Z,4.40
2019-03-05T08:19:14.587Z,4.30
2019-03-05T08:21:46.888Z,4.20
2019-03-05T08:24:17.407Z,4.30
2019-03-05T08:26:48.899Z,4.20
2019-03-05T08:29:19.955Z,4.30
2019-03-05T08:31:50.527Z,4.30
2019-03-05T08:34:21.075Z,4.30
2019-03-05T08:36:51.609Z,4.30
2019-03-05T08:39:22.143Z,4.30
2019-03-05T08:41:52.673Z,4.30
2019-03-05T08:44:23.191Z,4.40
2019-03-05T08:46:53.728Z,4.40
2019-03-05T08:49:24.222Z,4.50
2019-03-05T08:51:54.754Z,4.60
2019-03-05T08:54:25.240Z,4.70
2019-03-05T08:56:56.382Z,4.80
2019-03-05T08:59:27.866Z,4.80
2019-03-05T09:01:58.543Z,4.90
2019-03-05T09:04:29.115Z,4.90
2019-03-05T09:06:59.626Z,5.00
2019-03-05T09:09:30.641Z,5.00
2019-03-05T09:12:01.185Z,4.90
2019-03-05T09:14:34.274Z,4.80
2019-03-05T09:17:04.287Z,4.80
2019-03-05T09:19:34.800Z,4.90
2019-03-05T09:22:05.317Z,5.00
2019-03-05T09:24:36.389Z,5.10
2019-03-05T09:27:07.309Z,5.10
2019-03-05T09:29:38.288Z,5.00
2019-03-05T09:32:09.697Z,5.00
2019-03-05T09:34:41.240Z,5.10
2019-03-05T09:37:12.285Z,5.00
2019-03-05T09:39:42.800Z,5.00
2019-03-05T09:42:13.905Z,5.00
2019-03-05T09:44:44.432Z,4.80
2019-03-05T09:47:15.139Z,4.90
2019-03-05T09:49:45.684Z,5.10
2019-03-05T09:52:18.544Z,5.20
2019-03-05T09:54:49.391Z,5.30
2019-03-05T09:57:20.735Z,5.40
2019-03-05T09:59:51.367Z,5.40
2019-03-05T10:02:21.876Z,5.40
2019-03-05T10:04:54.334Z,5.40
2019-03-05T10:07:27.512Z,5.40
2019-03-05T10:10:00.735Z,5.20
2019-03-05T10:12:33.010Z,4.90
2019-03-05T10:15:03.505Z,4.80
2019-03-05T10:17:37.944Z,4.80
2019-03-05T10:20:08.820Z,5.00
2019-03-05T10:22:39.324Z,5.00
2019-03-05T10:25:12.874Z,5.10
2019-03-05T10:27:42.848Z,5.10
2019-03-05T10:30:24.378Z,5.10
2019-03-05T10:32:49.428Z,5.10
2019-03-05T10:35:21.232Z,5.20
2019-03-05T10:37:55.188Z,5.20
2019-03-05T10:40:28.034Z,5.20
2019-03-05T10:43:07.989Z,5.30
2019-03-05T10:45:31.282Z,5.30
2019-03-05T10:48:02.772Z,5.20
2019-03-05T10:50:33.673Z,5.20
2019-03-05T10:53:04.512Z,5.30
2019-03-05T10:55:35.368Z,5.30
2019-03-05T10:58:06.279Z,5.40
2019-03-05T11:00:39.447Z,5.40
2019-03-05T11:03:10.635Z,5.40
2019-03-05T11:05:41.656Z,5.40
2019-03-05T11:08:18.318Z,5.30
2019-03-05T11:10:49.683Z,5.10
2019-03-05T11:13:20.403Z,5.10
2019-03-05T11:15:54.332Z,5.20
2019-03-05T11:18:29.822Z,5.10
2019-03-05T11:20:59.202Z,5.10
2019-03-05T11:23:30.019Z,5.20
2019-03-05T11:26:01.144Z,5.20
2019-03-05T11:28:31.660Z,5.10
2019-03-05T11:31:03.122Z,5.00
2019-03-05T11:33:34.021Z,5.10
2019-03-05T11:36:04.534Z,5.10
2019-03-05T11:38:35.303Z,5.00
2019-03-05T11:41:05.904Z,4.70
2019-03-05T11:43:36.914Z,4.60
2019-03-05T11:46:15.291Z,4.50
2019-03-05T11:48:45.926Z,4.60
2019-03-05T11:51:16.468Z,4.70
2019-03-05T11:53:46.955Z,4.80
2019-03-05T11:56:18.658Z,4.90
2019-03-05T11:58:49.167Z,5.00
2019-03-05T12:01:44.576Z,5.10
2019-03-05T12:04:15.574Z,5.20
2019-03-05T12:06:46.247Z,5.30
2019-03-05T12:09:19.123Z,5.40
2019-03-05T12:11:49.622Z,5.60
2019-03-05T12:14:20.154Z,5.60
2019-03-05T12:16:50.660Z,5.70
2019-03-05T12:19:21.279Z,5.70
2019-03-05T12:21:51.771Z,5.70
2019-03-05T12:24:26.220Z,5.60
2019-03-05T12:26:56.760Z,5.60
2019-03-05T12:29:27.278Z,5.60
2019-03-05T12:31:58.388Z,5.50
2019-03-05T12:34:28.904Z,5.50
2019-03-05T12:36:59.996Z,5.50
2019-03-05T12:39:30.537Z,5.40
2019-03-05T12:42:03.516Z,5.30
2019-03-05T12:44:33.583Z,5.30
2019-03-05T12:47:04.224Z,5.30
2019-03-05T12:49:34.774Z,5.30
2019-03-05T12:52:05.531Z,5.30
2019-03-05T12:54:36.663Z,5.20
2019-03-05T12:57:07.180Z,5.20
2019-03-05T12:59:38.142Z,5.20
2019-03-05T13:02:08.654Z,5.20
2019-03-05T13:04:39.169Z,5.20
2019-03-05T13:07:14.161Z,5.20
2019-03-05T13:09:45.350Z,5.30
2019-03-05T13:12:15.167Z,5.30
2019-03-05T13:14:45.673Z,5.40
2019-03-05T13:17:16.208Z,5.40
2019-03-05T13:19:48.032Z,5.30
2019-03-05T13:22:18.854Z,5.30
2019-03-05T13:24:50.209Z,5.20
2019-03-05T13:27:22.807Z,5.10
2019-03-05T13:29:54.115Z,5.20
2019-03-05T13:32:25.047Z,5.20
2019-03-05T13:34:55.783Z,5.30
2019-03-05T13:37:28.502Z,5.40
2019-03-05T13:39:59.233Z,5.50
2019-03-05T13:42:33.318Z,5.60
2019-03-05T13:45:05.355Z,5.60
2019-03-05T13:47:37.138Z,5.70
2019-03-05T13:50:38.879Z,5.80
2019-03-05T13:53:40.872Z,5.80
2019-03-05T13:56:31.703Z,5.70
2019-03-05T13:59:29.241Z,5.60
2019-03-05T14:01:59.783Z,5.50
2019-03-05T14:04:38.124Z,5.50
2019-03-05T14:07:52.698Z,5.40
2019-03-05T14:10:42.469Z,5.30
2019-03-05T14:13:13.010Z,5.40
2019-03-05T14:15:44.610Z,5.40
2019-03-05T14:18:15.111Z,5.40
2019-03-05T14:20:45.625Z,5.30
2019-03-05T14:23:16.158Z,5.20
2019-03-05T14:25:47.106Z,4.90
2019-03-05T14:28:19.622Z,4.60
2019-03-05T14:30:49.743Z,4.60
2019-03-05T14:33:20.324Z,4.40
2019-03-05T14:35:50.894Z,4.20
2019-03-05T14:38:22.300Z,4.20
2019-03-05T14:40:52.863Z,4.10
2019-03-05T14:43:23.384Z,4.20
2019-03-05T14:45:54.237Z,4.20
2019-03-05T14:48:26.350Z,4.20
2019-03-05T14:50:56.902Z,4.20
2019-03-05T14:53:27.410Z,4.20
2019-03-05T14:56:00.353Z,4.20
2019-03-05T14:58:30.955Z,4.20
2019-03-05T15:01:01.901Z,4.00
2019-03-05T15:03:35.254Z,4.00
2019-03-05T15:06:05.826Z,3.70
2019-03-05T15:08:36.310Z,3.60
2019-03-05T15:11:06.972Z,3.60
2019-03-05T15:13:38.020Z,3.50
2019-03-05T15:16:08.677Z,3.40
2019-03-05T15:18:39.205Z,3.40
2019-03-05T15:21:09.772Z,3.40
2019-03-05T15:23:40.587Z,3.40
2019-03-05T15:26:11.642Z,3.30
2019-03-05T15:28:55.468Z,3.40
2019-03-05T15:31:15.966Z,3.40
2019-03-05T15:33:46.452Z,3.40
2019-03-05T15:36:23.695Z,3.40
2019-03-05T15:38:49.573Z,3.30
2019-03-05T15:41:20.111Z,3.30
2019-03-05T15:43:50.674Z,3.20
2019-03-05T15:46:21.130Z,3.10
2019-03-05T15:48:51.652Z,3.10
2019-03-05T15:51:22.162Z,3.00
2019-03-05T15:53:52.688Z,2.90
2019-03-05T15:56:23.552Z,2.90
2019-03-05T15:58:54.106Z,3.00
2019-03-05T16:01:24.764Z,3.00
2019-03-05T16:03:55.353Z,2.90
2019-03-05T16:06:33.655Z,2.80
2019-03-05T16:09:03.646Z,2.90
2019-03-05T16:11:35.157Z,2.90
2019-03-05T16:14:06.499Z,2.90
2019-03-05T16:16:37.508Z,2.80
2019-03-05T16:19:08.078Z,2.80
2019-03-05T16:21:41.336Z,2.80
2019-03-05T16:24:10.883Z,2.70
2019-03-05T16:26:41.407Z,2.60
2019-03-05T16:29:12.065Z,2.50
2019-03-05T16:32:04.330Z,2.50
2019-03-05T16:34:45.902Z,2.50
2019-03-05T16:37:34.734Z,2.50
2019-03-05T16:40:24.496Z,2.50
2019-03-05T16:43:14.061Z,2.50
2019-03-05T16:46:09.488Z,2.50
2019-03-05T16:48:46.466Z,2.40
2019-03-05T16:51:23.687Z,2.40
2019-03-05T16:54:11.854Z,2.40
2019-03-05T16:56:55.957Z,2.50
2019-03-05T16:59:48.213Z,2.40
2019-03-05T17:02:52.803Z,2.50
2019-03-05T17:05:44.006Z,2.40
2019-03-05T17:08:23.750Z,2.40
2019-03-05T17:11:04.388Z,2.40
2019-03-05T17:13:34.955Z,2.50
2019-03-05T17:16:05.841Z,2.50
2019-03-05T17:18:36.363Z,2.60
2019-03-05T17:21:06.927Z,2.60
2019-03-05T17:23:37.620Z,2.40
2019-03-05T17:26:08.183Z,2.20
2019-03-05T17:28:38.846Z,2.10
2019-03-05T17:31:09.490Z,2.10
2019-03-05T17:33:40.028Z,2.10
2019-03-05T17:36:10.860Z,2.10
2019-03-05T17:38:41.519Z,2.20
2019-03-05T17:41:13.271Z,2.20
2019-03-05T17:43:43.863Z,2.20
2019-03-05T17:46:14.411Z,2.20
2019-03-05T17:48:45.083Z,2.20
2019-03-05T17:51:17.612Z,2.20
2019-03-05T17:53:48.124Z,2.20
2019-03-05T17:56:18.668Z,2.20
2019-03-05T17:58:49.386Z,2.10
2019-03-05T18:01:20.520Z,2.00
2019-03-05T18:03:50.979Z,1.80
2019-03-05T18:06:21.539Z,1.60
2019-03-05T18:08:52.454Z,1.50
2019-03-05T18:11:23.192Z,1.40
2019-03-05T18:13:53.725Z,1.30
2019-03-05T18:16:24.295Z,1.10
2019-03-05T18:18:54.846Z,1.00
2019-03-05T18:21:25.847Z,0.90
2019-03-05T18:23:56.611Z,1.00
2019-03-05T18:26:27.499Z,0.90
2019-03-05T18:28:58.901Z,0.80
2019-03-05T18:31:29.443Z,0.70
2019-03-05T18:33:59.961Z,0.60
2019-03-05T18:36:52.106Z,0.70
2019-03-05T18:39:22.689Z,0.70
2019-03-05T18:41:53.626Z,0.90
2019-03-05T18:44:24.170Z,0.80
2019-03-05T18:46:55.095Z,0.80
2019-03-05T18:49:25.703Z,0.90
2019-03-05T18:51:56.190Z,0.80
2019-03-05T18:54:27.396Z,0.60
2019-03-05T18:56:57.979Z,0.60
2019-03-05T18:59:28.663Z,0.70
2019-03-05T19:01:59.209Z,0.70
2019-03-05T19:04:29.990Z,0.70
2019-03-05T19:07:00.515Z,0.60
2019-03-05T19:09:31.078Z,0.70
2019-03-05T19:12:01.641Z,0.80
2019-03-05T19:14:32.223Z,0.80
2019-03-05T19:17:02.940Z,0.80
2019-03-05T19:19:34.031Z,0.90
2019-03-05T19:22:05.592Z,0.80
2019-03-05T19:24:36.156Z,0.90
2019-03-05T19:27:08.255Z,0.80
2019-03-05T19:29:38.774Z,0.80
2019-03-05T19:32:09.494Z,0.80
2019-03-05T19:34:41.539Z,0.80
2019-03-05T19:37:12.524Z,0.80
2019-03-05T19:39:44.485Z,0.80
2019-03-05T19:42:15.040Z,0.80
2019-03-05T19:44:45.578Z,0.80
2019-03-05T19:47:16.141Z,0.70
2019-03-05T19:49:46.684Z,0.70
2019-03-05T19:52:17.211Z,0.80
2019-03-05T19:54:47.751Z,0.80
2019-03-05T19:57:18.351Z,0.90
2019-03-05T19:59:49.341Z,0.90
2019-03-05T20:02:19.891Z,0.90
2019-03-05T20:04:50.403Z,0.80
2019-03-05T20:07:20.957Z,0.70
2019-03-05T20:09:51.717Z,0.70
2019-03-05T20:12:22.255Z,0.60
2019-03-05T20:14:52.799Z,0.60
2019-03-05T20:17:23.756Z,0.50
2019-03-05T20:19:54.341Z,0.50
2019-03-05T20:22:25.382Z,0.50
2019-03-05T20:24:55.995Z,0.50
2019-03-05T20:27:26.537Z,0.50
2019-03-05T20:29:57.065Z,0.30
2019-03-05T20:32:27.818Z,0.30
2019-03-05T20:34:58.390Z,0.30
2019-03-05T20:37:28.922Z,0.20
2019-03-05T20:39:59.500Z,0.10
2019-03-05T20:42:30.087Z,0.00
2019-03-05T20:45:00.627Z,0.10
2019-03-05T20:47:31.179Z,0.10
2019-03-05T20:50:01.744Z,0.00
2019-03-05T20:52:33.279Z,0.00
2019-03-05T20:55:04.186Z,0.00
2019-03-05T20:57:34.716Z,0.00
2019-03-05T21:00:11.259Z,0.10
2019-03-05T21:02:42.420Z,-0.10
2019-03-05T21:05:13.587Z,-0.10
2019-03-05T21:07:45.252Z,-0.10
2019-03-05T21:10:18.920Z,-0.20
2019-03-05T21:12:49.451Z,-0.20
2019-03-05T21:15:20.082Z,-0.20
2019-03-05T21:17:50.823Z,-0.20
2019-03-05T21:20:21.511Z,-0.20
2019-03-05T21:22:51.999Z,-0.20
2019-03-05T21:25:22.550Z,-0.20
2019-03-05T21:27:53.088Z,-0.10
2019-03-05T21:30:23.623Z,0.00
2019-03-05T21:32:54.188Z,0.10
2019-03-05T21:35:25.083Z,0.10
2019-03-05T21:37:57.764Z,0.20
2019-03-05T21:40:28.591Z,0.20
2019-03-05T21:42:59.124Z,0.30
2019-03-05T21:45:35.523Z,0.40
2019-03-05T21:48:06.814Z,0.30
2019-03-05T21:50:37.340Z,0.30
2019-03-05T21:53:07.971Z,0.30
2019-03-05T21:55:38.545Z,0.30
2019-03-05T21:58:09.083Z,0.30
2019-03-05T22:00:40.299Z,0.20
2019-03-05T22:03:10.855Z,0.20
2019-03-05T22:05:41.382Z,0.20
2019-03-05T22:08:11.888Z,0.20
2019-03-05T22:10:42.415Z,0.30
2019-03-05T22:13:12.938Z,0.30
2019-03-05T22:15:43.495Z,0.20
2019-03-05T22:18:14.450Z,0.20
2019-03-05T22:20:45.251Z,0.20
2019-03-05T22:23:15.828Z,0.10
2019-03-05T22:25:46.344Z,0.00
2019-03-05T22:28:16.967Z,0.10
2019-03-05T22:30:47.592Z,0.10
2019-03-05T22:33:18.122Z,0.20
2019-03-05T22:35:48.635Z,0.20
2019-03-05T22:38:19.158Z,0.30
2019-03-05T22:40:49.674Z,0.20
2019-03-05T22:43:20.426Z,0.20
2019-03-05T22:45:50.996Z,0.20
2019-03-05T22:48:21.509Z,0.10
2019-03-05T22:50:52.326Z,0.00
2019-03-05T22:53:22.855Z,0.00
2019-03-05T22:55:53.378Z,0.00
2019-03-05T22:58:23.924Z,-0.10
2019-03-05T23:01:17.566Z,-0.10
2019-03-05T23:03:58.931Z,-0.10
2019-03-05T23:06:29.877Z,0.00
2019-03-05T23:09:00.521Z,0.10
2019-03-05T23:11:32.260Z,0.10
2019-03-05T23:14:02.744Z,0.00
2019-03-05T23:16:33.692Z,-0.10
2019-03-05T23:19:04.223Z,-0.10
2019-03-05T23:21:34.767Z,-0.10
2019-03-05T23:24:06.615Z,-0.10
2019-03-05T23:26:37.516Z,-0.10
2019-03-05T23:29:09.505Z,-0.10
2019-03-05T23:31:40.463Z,-0.10
2019-03-05T23:34:18.094Z,-0.10
2019-03-05T23:36:43.463Z,-0.10
2019-03-05T23:39:17.830Z,0.00
2019-03-05T23:41:48.293Z,-0.10
2019-03-05T23:44:18.807Z,-0.10
2019-03-05T23:46:49.331Z,-0.10
2019-03-05T23:49:19.872Z,0.00
2019-03-05T23:51:50.424Z,0.00
2019-03-05T23:54:21.392Z,-0.10
2019-03-05T23:56:51.938Z,-0.10
2019-03-05T23:59:22.544Z,-0.10
